Time;durP1;ratioP1;P1;durP2;ratioP2;P2;SDS_P1;SDS_P2;PMS_P1;PMS_P2;Temp;Humidity;BMP_temperature;BMP_pressure;BME280_temperature;BME280_humidity;BME280_pressure;Samples;Min_cycle;Max_cycle;Signal;HPM_P1;HPM_P2
2024/03/19 00:02:19;;;;;;;;;;;;;;;;;;4999605;28;20434;-58
2024/03/19 00:04:45;;;;;;;;;;;;;;;;;;5012447;28;20280;-58
2024/03/19 00:07:11;;;;;;;;;;;;;;;;;;5012310;28;19909;-58
2024/03/19 00:09:43;;;;;;;;;;;;;;;;;;4994573;28;19913;-58
2024/03/19 00:12:10;;;;;;;;;;;;;;;;;;5013394;28;20379;-58
2024/03/19 00:14:36;;;;;;;;;;;;;;;;;;5024995;28;20292;-58
2024/03/19 00:17:02;;;;;;;;;;;;;;;;;;5015398;28;19909;-57
2024/03/19 00:19:28;;;;;;;;;;;;;;;;;;5012199;28;20280;-58
2024/03/19 00:21:54;;;;;;;;;;;;;;;;;;5020367;28;19915;-58
2024/03/19 00:24:21;;;;;;;;;;;;;;;;;;5001611;28;20390;-59
2024/03/19 00:26:47;;;;;;;;;;;;;;;;;;5012084;28;19910;-58
2024/03/19 00:29:13;;;;;;;;;;;;;;;;;;5024714;28;19913;-58
2024/03/19 00:31:39;;;;;;;;;;;;;;;;;;5007181;28;19958;-58
2024/03/19 00:34:08;;;;;;;;;;;;;;;;;;5031563;28;19909;-58
2024/03/19 00:36:35;;;;;;;;;;;;;;;;;;5015322;28;19953;-59
2024/03/19 00:39:01;;;;;;;;;;;;;;;;;;5025748;28;19909;-58
2024/03/19 00:41:27;;;;;;;;;;;;;;;;;;5022850;28;19909;-59
2024/03/19 00:43:58;;;;;;;;;;;;;;;;;;5012388;28;19906;-58
2024/03/19 00:46:25;;;;;;;;;;;;;;;;;;5023109;28;19924;-58
2024/03/19 00:48:51;;;;;;;;;;;;;;;;;;5023973;28;19913;-58
2024/03/19 00:51:17;;;;;;;;;;;;;;;;;;5003776;28;20260;-57
2024/03/19 00:53:43;;;;;;;;;;;;;;;;;;5011953;28;19964;-59
2024/03/19 00:56:09;;;;;;;;;;;;;;;;;;4994397;28;20438;-59
2024/03/19 00:58:36;;;;;;;;;;;;;;;;;;5017664;28;19996;-59
2024/03/19 01:01:08;;;;;;;;;;;;;;;;;;5013151;28;19964;-57
2024/03/19 01:03:35;;;;;;;;;;;;;;;;;;4978126;28;19920;-58
2024/03/19 01:06:01;;;;;;;;;;;;;;;;;;5011766;28;20170;-58
2024/03/19 01:08:27;;;;;;;;;;;;;;;;;;5020225;28;19913;-60
2024/03/19 01:10:56;;;;;;;;;;;;;;;;;;5023008;28;20005;-58
2024/03/19 01:13:23;;;;;;;;;;;;;;;;;;5011732;28;20334;-58
2024/03/19 01:15:49;;;;;;;;;;;;;;;;;;5016059;28;20332;-59
2024/03/19 01:18:15;;;;;;;;;;;;;;;;;;5024204;28;20014;-59
2024/03/19 01:20:42;;;;;;;;;;;;;;;;;;5012661;28;19909;-57
2024/03/19 01:23:08;;;;;;;;;;;;;;;;;;5004913;28;19914;-57
2024/03/19 01:25:37;;;;;;;;;;;;;;;;;;5011585;28;19952;-59
2024/03/19 01:28:03;;;;;;;;;;;;;;;;;;5024011;28;19909;-58
2024/03/19 01:30:29;;;;;;;;;;;;;;;;;;5031282;28;19909;-57
2024/03/19 01:32:55;;;;;;;;;;;;;;;;;;5031284;28;19909;-58
2024/03/19 01:35:22;;;;;;;;;;;;;;;;;;5013479;28;19916;-57
2024/03/19 01:37:48;;;;;;;;;;;;;;;;;;5031300;28;19909;-58
2024/03/19 01:40:17;;;;;;;;;;;;;;;;;;5019802;28;19906;-58
2024/03/19 01:42:43;;;;;;;;;;;;;;;;;;5015074;28;19909;-59
2024/03/19 01:45:09;;;;;;;;;;;;;;;;;;5015452;28;19913;-58
2024/03/19 01:47:36;;;;;;;;;;;;;;;;;;4980994;28;19909;-58
2024/03/19 01:50:02;;;;;;;;;;;;;;;;;;4997738;28;19967;-58
2024/03/19 01:52:28;;;;;;;;;;;;;;;;;;5014855;28;19936;-58
2024/03/19 01:54:54;;;;;;;;;;;;;;;;;;5015984;28;19906;-59
2024/03/19 01:57:21;;;;;;;;;;;;;;;;;;5024896;28;19972;-58
2024/03/19 01:59:47;;;;;;;;;;;;;;;;;;5016471;28;19912;-60
2024/03/19 02:02:13;;;;;;;;;;;;;;;;;;5021593;28;19964;-57
2024/03/19 02:04:39;;;;;;;;;;;;;;;;;;5034583;28;19909;-59
2024/03/19 02:07:05;;;;;;;;;;;;;;;;;;5025969;28;19997;-59
2024/03/19 02:09:34;;;;;;;;;;;;;;;;;;5014496;28;19909;-59
2024/03/19 02:12:00;;;;;;;;;;;;;;;;;;4996802;28;19909;-59
2024/03/19 02:14:27;;;;;;;;;;;;;;;;;;5014389;28;19910;-60
2024/03/19 02:16:53;;;;;;;;;;;;;;;;;;4996600;28;19916;-58
2024/03/19 02:19:21;;;;;;;;;;;;;;;;;;5022670;28;20334;-58
2024/03/19 02:21:47;;;;;;;;;;;;;;;;;;5034187;28;19912;-59
2024/03/19 02:24:13;;;;;;;;;;;;;;;;;;5016651;28;19905;-58
2024/03/19 02:26:39;;;;;;;;;;;;;;;;;;5033772;28;19909;-58
2024/03/19 02:29:06;;;;;;;;;;;;;;;;;;5033967;28;20279;-57
2024/03/19 02:31:35;;;;;;;;;;;;;;;;;;5033752;28;20362;-58
2024/03/19 02:34:01;;;;;;;;;;;;;;;;;;5033886;28;19960;-57
2024/03/19 02:36:27;;;;;;;;;;;;;;;;;;5033643;28;19959;-59
2024/03/19 02:38:57;;;;;;;;;;;;;;;;;;4999603;28;19912;-58
2024/03/19 02:41:23;;;;;;;;;;;;;;;;;;5033614;28;20131;-54
2024/03/19 02:43:49;;;;;;;;;;;;;;;;;;5033694;28;19950;-58
2024/03/19 02:46:15;;;;;;;;;;;;;;;;;;5033321;28;19909;-58
2024/03/19 02:48:41;;;;;;;;;;;;;;;;;;5033427;28;20335;-58
2024/03/19 02:51:08;;;;;;;;;;;;;;;;;;5015462;28;20008;-59
2024/03/19 02:53:37;;;;;;;;;;;;;;;;;;5033117;28;20275;-58
2024/03/19 02:56:03;;;;;;;;;;;;;;;;;;5023109;28;20520;-58
2024/03/19 02:58:29;;;;;;;;;;;;;;;;;;4995913;28;20247;-59
2024/03/19 03:00:58;;;;;;;;;;;;;;;;;;5015156;28;19910;-57
2024/03/19 03:03:24;;;;;;;;;;;;;;;;;;5028749;28;19932;-57
2024/03/19 03:05:50;;;;;;;;;;;;;;;;;;5004469;28;19948;-59
2024/03/19 03:08:17;;;;;;;;;;;;;;;;;;5013305;28;19999;-57
2024/03/19 03:10:43;;;;;;;;;;;;;;;;;;5013347;28;19920;-59
2024/03/19 03:13:09;;;;;;;;;;;;;;;;;;5015313;28;19909;-59
2024/03/19 03:15:35;;;;;;;;;;;;;;;;;;5017184;28;19909;-59
2024/03/19 03:18:02;;;;;;;;;;;;;;;;;;5022860;28;19909;-59
2024/03/19 03:20:28;;;;;;;;;;;;;;;;;;5016048;28;19909;-60
2024/03/19 03:22:54;;;;;;;;;;;;;;;;;;5016580;28;20125;-59
2024/03/19 03:25:21;;;;;;;;;;;;;;;;;;5032701;28;19991;-59
2024/03/19 03:27:47;;;;;;;;;;;;;;;;;;5032704;28;19959;-58
2024/03/19 03:30:13;;;;;;;;;;;;;;;;;;5014871;28;19913;-58
2024/03/19 03:32:43;;;;;;;;;;;;;;;;;;5032674;28;20359;-59
2024/03/19 03:35:09;;;;;;;;;;;;;;;;;;5010727;28;19910;-57
2024/03/19 03:37:35;;;;;;;;;;;;;;;;;;5012840;28;19952;-59
2024/03/19 03:40:13;;;;;;;;;;;;;;;;;;5012635;28;20387;-59
2024/03/19 03:42:40;;;;;;;;;;;;;;;;;;4995166;28;19909;-58
2024/03/19 03:45:06;;;;;;;;;;;;;;;;;;5012521;28;19913;-59
2024/03/19 03:47:32;;;;;;;;;;;;;;;;;;5012600;28;19910;-59
2024/03/19 03:49:58;;;;;;;;;;;;;;;;;;5011341;28;19920;-59
2024/03/19 03:52:32;;;;;;;;;;;;;;;;;;5012919;28;19913;-58
2024/03/19 03:54:58;;;;;;;;;;;;;;;;;;5024518;28;20295;-58
2024/03/19 03:57:24;;;;;;;;;;;;;;;;;;5012381;28;19912;-59
2024/03/19 03:59:51;;;;;;;;;;;;;;;;;;5019266;28;20328;-59
2024/03/19 04:02:17;;;;;;;;;;;;;;;;;;5026471;28;20354;-59
2024/03/19 04:04:43;;;;;;;;;;;;;;;;;;5012393;28;19913;-58
2024/03/19 04:07:12;;;;;;;;;;;;;;;;;;5022705;28;19909;-59
2024/03/19 04:09:38;;;;;;;;;;;;;;;;;;5019795;28;20009;-58
2024/03/19 04:12:04;;;;;;;;;;;;;;;;;;4997267;28;19916;-59
2024/03/19 04:14:31;;;;;;;;;;;;;;;;;;5031374;28;19909;-58
2024/03/19 04:16:57;;;;;;;;;;;;;;;;;;5007022;28;19909;-59
2024/03/19 04:19:23;;;;;;;;;;;;;;;;;;4994582;28;19925;-59
2024/03/19 04:21:52;;;;;;;;;;;;;;;;;;5022416;28;19905;-59
2024/03/19 04:24:19;;;;;;;;;;;;;;;;;;5031975;28;19909;-59
2024/03/19 04:26:45;;;;;;;;;;;;;;;;;;5015151;28;20279;-59
2024/03/19 04:29:11;;;;;;;;;;;;;;;;;;5001501;28;19913;-58
2024/03/19 04:31:37;;;;;;;;;;;;;;;;;;5018925;28;20295;-59
2024/03/19 04:34:06;;;;;;;;;;;;;;;;;;4994555;28;19961;-59
2024/03/19 04:36:35;;;;;;;;;;;;;;;;;;5013505;28;20323;-59
2024/03/19 04:39:10;;;;;;;;;;;;;;;;;;5013744;28;19909;-59
2024/03/19 04:41:36;;;;;;;;;;;;;;;;;;5031914;28;20363;-57
2024/03/19 04:44:02;;;;;;;;;;;;;;;;;;5031956;28;19905;-60
2024/03/19 04:46:28;;;;;;;;;;;;;;;;;;5023754;28;19909;-58
2024/03/19 04:48:55;;;;;;;;;;;;;;;;;;5024482;28;19913;-63
2024/03/19 04:51:21;;;;;;;;;;;;;;;;;;5011165;28;20375;-50
2024/03/19 04:53:47;;;;;;;;;;;;;;;;;;5012004;28;19912;-48
2024/03/19 04:56:13;;;;;;;;;;;;;;;;;;5013162;28;20004;-58
2024/03/19 04:58:40;;;;;;;;;;;;;;;;;;5011831;28;19948;-59
2024/03/19 05:01:06;;;;;;;;;;;;;;;;;;5011774;28;19910;-59
2024/03/19 05:03:32;;;;;;;;;;;;;;;;;;5011776;28;19906;-59
2024/03/19 05:05:58;;;;;;;;;;;;;;;;;;5011957;28;19913;-59
2024/03/19 05:08:28;;;;;;;;;;;;;;;;;;5012021;28;19912;-59
2024/03/19 05:10:54;;;;;;;;;;;;;;;;;;5011812;28;20429;-58
2024/03/19 05:13:20;;;;;;;;;;;;;;;;;;4994358;28;19905;-59
2024/03/19 05:15:47;;;;;;;;;;;;;;;;;;5013756;28;19956;-59
2024/03/19 05:18:13;;;;;;;;;;;;;;;;;;5015253;28;20066;-59
2024/03/19 05:20:39;;;;;;;;;;;;;;;;;;5015777;28;19909;-57
2024/03/19 05:23:05;;;;;;;;;;;;;;;;;;5015947;28;19912;-59
2024/03/19 05:25:31;;;;;;;;;;;;;;;;;;4997877;28;19964;-59
2024/03/19 05:27:57;;;;;;;;;;;;;;;;;;5015350;28;19905;-58
2024/03/19 05:30:24;;;;;;;;;;;;;;;;;;4997401;28;19913;-58
2024/03/19 05:32:50;;;;;;;;;;;;;;;;;;4997615;28;19917;-57
2024/03/19 05:35:16;;;;;;;;;;;;;;;;;;5015114;28;19913;-59
2024/03/19 05:37:42;;;;;;;;;;;;;;;;;;5015195;28;19948;-58
2024/03/19 05:40:10;;;;;;;;;;;;;;;;;;5015330;28;19932;-58
2024/03/19 05:42:39;;;;;;;;;;;;;;;;;;5015172;28;19992;-60
2024/03/19 05:45:05;;;;;;;;;;;;;;;;;;4997493;28;19913;-59
2024/03/19 05:47:31;;;;;;;;;;;;;;;;;;5014962;28;20276;-59
2024/03/19 05:49:57;;;;;;;;;;;;;;;;;;4997467;28;20300;-59
2024/03/19 05:52:27;;;;;;;;;;;;;;;;;;4997459;28;19906;-58
2024/03/19 05:54:53;;;;;;;;;;;;;;;;;;4997533;28;20299;-59
2024/03/19 05:57:19;;;;;;;;;;;;;;;;;;4997203;28;19905;-59
2024/03/19 05:59:45;;;;;;;;;;;;;;;;;;5014735;28;20364;-58
2024/03/19 06:02:11;;;;;;;;;;;;;;;;;;5014809;28;19905;-58
2024/03/19 06:04:37;;;;;;;;;;;;;;;;;;5014675;28;19917;-58
2024/03/19 06:07:04;;;;;;;;;;;;;;;;;;4996951;28;20467;-57
2024/03/19 06:09:30;;;;;;;;;;;;;;;;;;5014514;28;19913;-59
2024/03/19 06:11:57;;;;;;;;;;;;;;;;;;5014633;28;19932;-58
2024/03/19 06:14:23;;;;;;;;;;;;;;;;;;5014441;28;19910;-57
2024/03/19 06:16:52;;;;;;;;;;;;;;;;;;5014422;28;19967;-58
2024/03/19 06:19:19;;;;;;;;;;;;;;;;;;5014426;28;19910;-57
2024/03/19 06:21:45;;;;;;;;;;;;;;;;;;5014492;28;19940;-58
2024/03/19 06:24:12;;;;;;;;;;;;;;;;;;5014607;28;19964;-58
2024/03/19 06:26:40;;;;;;;;;;;;;;;;;;5013019;28;20012;-59
2024/03/19 06:29:07;;;;;;;;;;;;;;;;;;5014067;28;19971;-59
2024/03/19 06:31:33;;;;;;;;;;;;;;;;;;5014118;28;19943;-59
2024/03/19 06:33:59;;;;;;;;;;;;;;;;;;4996897;28;19953;-58
2024/03/19 06:36:26;;;;;;;;;;;;;;;;;;5013967;28;20004;-58
2024/03/19 06:38:55;;;;;;;;;;;;;;;;;;4996439;28;19916;-58
2024/03/19 06:41:21;;;;;;;;;;;;;;;;;;5014114;28;19905;-59
2024/03/19 06:43:47;;;;;;;;;;;;;;;;;;4996431;28;19917;-59
2024/03/19 06:46:13;;;;;;;;;;;;;;;;;;5013825;28;20435;-57
2024/03/19 06:48:40;;;;;;;;;;;;;;;;;;5013655;28;19961;-59
2024/03/19 06:51:06;;;;;;;;;;;;;;;;;;5013902;28;19951;-57
2024/03/19 06:53:35;;;;;;;;;;;;;;;;;;5013788;28;19910;-59
2024/03/19 06:56:01;;;;;;;;;;;;;;;;;;5013551;28;19906;-59
2024/03/19 06:58:28;;;;;;;;;;;;;;;;;;5013722;28;20012;-59
2024/03/19 07:00:54;;;;;;;;;;;;;;;;;;5013651;28;19905;-57
2024/03/19 07:03:41;;;;;;;;;;;;;;;;;;5008701;28;19909;-53
2024/03/19 07:06:13;;;;;;;;;;;;;;;;;;5032197;28;19908;-52
2024/03/19 07:08:41;;;;;;;;;;;;;;;;;;5032845;28;19909;-51
2024/03/19 07:11:09;;;;;;;;;;;;;;;;;;5033278;28;19944;-59
2024/03/19 07:13:35;;;;;;;;;;;;;;;;;;5033249;28;19955;-57
2024/03/19 07:16:01;;;;;;;;;;;;;;;;;;5032967;28;20355;-57
2024/03/19 07:18:28;;;;;;;;;;;;;;;;;;5015358;28;20471;-56
2024/03/19 07:20:57;;;;;;;;;;;;;;;;;;5033101;28;19952;-56
2024/03/19 07:23:23;;;;;;;;;;;;;;;;;;5033051;28;19909;-57
2024/03/19 07:25:49;;;;;;;;;;;;;;;;;;5032817;28;19905;-55
2024/03/19 07:28:16;;;;;;;;;;;;;;;;;;5033003;28;19916;-55
2024/03/19 07:30:42;;;;;;;;;;;;;;;;;;5015082;28;19946;-55
2024/03/19 07:33:08;;;;;;;;;;;;;;;;;;5032929;28;20578;-56
2024/03/19 07:35:37;;;;;;;;;;;;;;;;;;5032616;28;19905;-57
2024/03/19 07:38:04;;;;;;;;;;;;;;;;;;5032386;28;19916;-57
2024/03/19 07:40:30;;;;;;;;;;;;;;;;;;5032804;28;19912;-56
2024/03/19 07:42:57;;;;;;;;;;;;;;;;;;5032592;28;19909;-57
2024/03/19 07:45:23;;;;;;;;;;;;;;;;;;5032609;28;20322;-58
2024/03/19 07:47:49;;;;;;;;;;;;;;;;;;5014695;28;19959;-58
2024/03/19 07:50:22;;;;;;;;;;;;;;;;;;5014862;28;19913;-58
2024/03/19 07:52:54;;;;;;;;;;;;;;;;;;5031114;28;19912;-57
2024/03/19 07:55:21;;;;;;;;;;;;;;;;;;5032455;28;19909;-56
2024/03/19 07:57:47;;;;;;;;;;;;;;;;;;5032376;28;19939;-58
2024/03/19 08:00:14;;;;;;;;;;;;;;;;;;5032286;28;19963;-58
2024/03/19 08:02:46;;;;;;;;;;;;;;;;;;5015092;28;20438;-60
2024/03/19 08:05:12;;;;;;;;;;;;;;;;;;5032209;28;19941;-56
2024/03/19 08:07:43;;;;;;;;;;;;;;;;;;5032326;28;19909;-57
2024/03/19 08:10:15;;;;;;;;;;;;;;;;;;5032193;28;19913;-58
2024/03/19 08:12:41;;;;;;;;;;;;;;;;;;5032206;28;19909;-55
2024/03/19 08:15:08;;;;;;;;;;;;;;;;;;5031974;28;20003;-56
2024/03/19 08:17:34;;;;;;;;;;;;;;;;;;5032097;28;19917;-58
2024/03/19 08:20:00;;;;;;;;;;;;;;;;;;5032180;28;20015;-58
2024/03/19 08:22:32;;;;;;;;;;;;;;;;;;5032107;28;19962;-57
2024/03/19 08:24:58;;;;;;;;;;;;;;;;;;5032131;28;19913;-57
2024/03/19 08:27:25;;;;;;;;;;;;;;;;;;5031873;28;19913;-58
2024/03/19 08:29:58;;;;;;;;;;;;;;;;;;5031919;28;19917;-57
2024/03/19 08:32:27;;;;;;;;;;;;;;;;;;5031903;28;20390;-57
2024/03/19 08:34:53;;;;;;;;;;;;;;;;;;5014367;28;19905;-56
2024/03/19 08:37:19;;;;;;;;;;;;;;;;;;5030654;28;19909;-58
2024/03/19 08:39:45;;;;;;;;;;;;;;;;;;5014161;28;19905;-59
2024/03/19 08:42:12;;;;;;;;;;;;;;;;;;5031784;28;19963;-57
2024/03/19 08:44:38;;;;;;;;;;;;;;;;;;5031872;28;19959;-60
2024/03/19 08:47:05;;;;;;;;;;;;;;;;;;5031798;28;20433;-59
2024/03/19 08:49:31;;;;;;;;;;;;;;;;;;5031748;28;20007;-59
2024/03/19 08:51:57;;;;;;;;;;;;;;;;;;5034538;28;19916;-58
2024/03/19 08:54:23;;;;;;;;;;;;;;;;;;5035879;28;19909;-59
2024/03/19 08:56:50;;;;;;;;;;;;;;;;;;5035565;28;19909;-58
2024/03/19 08:59:17;;;;;;;;;;;;;;;;;;5035796;28;19964;-58
2024/03/19 09:01:49;;;;;;;;;;;;;;;;;;5035786;28;19909;-58
2024/03/19 09:04:15;;;;;;;;;;;;;;;;;;5018085;28;19913;-57
2024/03/19 09:06:42;;;;;;;;;;;;;;;;;;5035447;28;19905;-58
2024/03/19 09:09:08;;;;;;;;;;;;;;;;;;5035354;28;20351;-59
2024/03/19 09:11:37;;;;;;;;;;;;;;;;;;5035328;28;19952;-59
2024/03/19 09:14:04;;;;;;;;;;;;;;;;;;5035473;28;19909;-58
2024/03/19 09:16:30;;;;;;;;;;;;;;;;;;5035264;28;19909;-59
2024/03/19 09:18:57;;;;;;;;;;;;;;;;;;5034362;28;19962;-58
2024/03/19 09:21:24;;;;;;;;;;;;;;;;;;5035130;28;19936;-58
2024/03/19 09:23:52;;;;;;;;;;;;;;;;;;5035098;28;20382;-59
2024/03/19 09:26:18;;;;;;;;;;;;;;;;;;5017382;28;19912;-58
2024/03/19 09:28:44;;;;;;;;;;;;;;;;;;5033908;28;19913;-59
2024/03/19 09:31:10;;;;;;;;;;;;;;;;;;5035050;28;19939;-59
2024/03/19 09:33:39;;;;;;;;;;;;;;;;;;5035041;28;19909;-60
2024/03/19 09:36:08;;;;;;;;;;;;;;;;;;5034896;28;19959;-60
2024/03/19 09:38:34;;;;;;;;;;;;;;;;;;5034809;28;20073;-58
2024/03/19 09:41:01;;;;;;;;;;;;;;;;;;5034864;28;19905;-59
2024/03/19 09:43:27;;;;;;;;;;;;;;;;;;5034911;28;19913;-59
2024/03/19 09:45:53;;;;;;;;;;;;;;;;;;5034623;28;19944;-59
2024/03/19 09:48:22;;;;;;;;;;;;;;;;;;5033323;28;19909;-59
2024/03/19 09:50:48;;;;;;;;;;;;;;;;;;5034636;28;19955;-60
2024/03/19 09:53:15;;;;;;;;;;;;;;;;;;5034710;28;19952;-58
2024/03/19 09:55:41;;;;;;;;;;;;;;;;;;5016776;28;19905;-57
2024/03/19 09:58:07;;;;;;;;;;;;;;;;;;5034595;28;19978;-58
2024/03/19 10:00:33;;;;;;;;;;;;;;;;;;5034292;28;19912;-58
2024/03/19 10:03:00;;;;;;;;;;;;;;;;;;5034462;28;19955;-58
2024/03/19 10:05:26;;;;;;;;;;;;;;;;;;5034255;28;19947;-58
2024/03/19 10:07:55;;;;;;;;;;;;;;;;;;5034307;28;19913;-58
2024/03/19 10:10:21;;;;;;;;;;;;;;;;;;5034248;28;19909;-58
2024/03/19 10:12:47;;;;;;;;;;;;;;;;;;5034461;28;20387;-59
2024/03/19 10:15:14;;;;;;;;;;;;;;;;;;5016391;28;19905;-58
2024/03/19 10:17:40;;;;;;;;;;;;;;;;;;5034160;28;19909;-58
2024/03/19 10:20:11;;;;;;;;;;;;;;;;;;5034082;28;19967;-59
2024/03/19 10:22:37;;;;;;;;;;;;;;;;;;5034219;28;19923;-59
2024/03/19 10:25:04;;;;;;;;;;;;;;;;;;5016352;28;20015;-59
2024/03/19 10:27:30;;;;;;;;;;;;;;;;;;5016474;28;19909;-59
2024/03/19 10:29:56;;;;;;;;;;;;;;;;;;5016374;28;20364;-59
2024/03/19 10:32:22;;;;;;;;;;;;;;;;;;5033941;28;20282;-59
2024/03/19 10:34:51;;;;;;;;;;;;;;;;;;5033831;28;19909;-58
2024/03/19 10:37:18;;;;;;;;;;;;;;;;;;5033647;28;20386;-59
2024/03/19 10:39:44;;;;;;;;;;;;;;;;;;5033639;28;19988;-58
2024/03/19 10:42:10;;;;;;;;;;;;;;;;;;5033607;28;19909;-55
2024/03/19 10:44:37;;;;;;;;;;;;;;;;;;5034247;28;20311;-60
2024/03/19 10:47:16;;;;;;;;;;;;;;;;;;5033621;28;19951;-56
2024/03/19 10:49:43;;;;;;;;;;;;;;;;;;5074683;23;20394;-63
2024/03/19 10:52:15;;;;;;;;;;;;;;;;;;5033534;28;19909;-64
2024/03/19 10:54:41;;;;;;;;;;;;;;;;;;5016075;28;19913;-63
2024/03/19 10:57:07;;;;;;;;;;;;;;;;;;5033635;28;19905;-63
2024/03/19 10:59:33;;;;;;;;;;;;;;;;;;5033432;28;19909;-63
2024/03/19 11:02:00;;;;;;;;;;;;;;;;;;5015635;28;19905;-63
2024/03/19 11:04:26;;;;;;;;;;;;;;;;;;5015655;28;19908;-63
2024/03/19 11:06:52;;;;;;;;;;;;;;;;;;5052756;28;20378;-63
2024/03/19 11:09:19;;;;;;;;;;;;;;;;;;5053078;28;19917;-63
2024/03/19 11:11:45;;;;;;;;;;;;;;;;;;5035459;28;19947;-63
2024/03/19 11:14:12;;;;;;;;;;;;;;;;;;5047808;28;19913;-63
2024/03/19 11:16:38;;;;;;;;;;;;;;;;;;5040614;28;20382;-63
2024/03/19 11:19:07;;;;;;;;;;;;;;;;;;5047638;28;19917;-64
2024/03/19 11:21:33;;;;;;;;;;;;;;;;;;5031709;28;19996;-64
2024/03/19 11:24:00;;;;;;;;;;;;;;;;;;5026035;28;20368;-63
2024/03/19 11:26:29;;;;;;;;;;;;;;;;;;5047198;28;19909;-63
2024/03/19 11:28:59;;;;;;;;;;;;;;;;;;5047928;28;19912;-63
2024/03/19 11:31:26;;;;;;;;;;;;;;;;;;5036911;28;19916;-63
2024/03/19 11:33:52;;;;;;;;;;;;;;;;;;5032889;28;19913;-63
2024/03/19 11:36:18;;;;;;;;;;;;;;;;;;5036064;28;19916;-64
2024/03/19 11:38:44;;;;;;;;;;;;;;;;;;5045716;28;19943;-64
2024/03/19 11:41:12;;;;;;;;;;;;;;;;;;5014049;28;19909;-64
2024/03/19 11:43:40;;;;;;;;;;;;;;;;;;5026159;28;20003;-63
2024/03/19 11:46:07;;;;;;;;;;;;;;;;;;5032520;28;19909;-63
2024/03/19 11:48:33;;;;;;;;;;;;;;;;;;5025865;28;19913;-64
2024/03/19 11:50:59;;;;;;;;;;;;;;;;;;5042958;28;19957;-64
2024/03/19 11:56:35;;;;;;;;;;;;;;;;;;5066267;28;20435;-64
2024/03/19 11:59:01;;;;;;;;;;;;;;;;;;5058605;28;20430;-64
2024/03/19 12:01:27;;;;;;;;;;;;;;;;;;5035806;28;19913;-62
2024/03/19 12:03:53;;;;;;;;;;;;;;;;;;5049068;28;19909;-63
2024/03/19 12:06:19;;;;;;;;;;;;;;;;;;5045270;28;20431;-64
2024/03/19 12:08:45;;;;;;;;;;;;;;;;;;5031905;28;20363;-68
2024/03/19 12:11:14;;;;;;;;;;;;;;;;;;5046933;28;19916;-66
2024/03/19 12:13:40;;;;;;;;;;;;;;;;;;5033598;28;20282;-66
2024/03/19 12:16:06;;;;;;;;;;;;;;;;;;5040447;28;20020;-57
2024/03/19 12:18:32;;;;;;;;;;;;;;;;;;5035422;28;20713;-64
2024/03/19 12:20:59;;;;;;;;;;;;;;;;;;5048437;28;19909;-64
2024/03/19 12:23:25;;;;;;;;;;;;;;;;;;5014427;28;19915;-63
2024/03/19 12:25:54;;;;;;;;;;;;;;;;;;5019248;28;20018;-64
2024/03/19 12:28:23;;;;;;;;;;;;;;;;;;5046820;28;19998;-63
2024/03/19 12:30:49;;;;;;;;;;;;;;;;;;5026185;28;20011;-62
2024/03/19 12:34:16;;;;;;;;;;;;;;;;;;5037413;28;19912;-63
2024/03/19 12:36:03;;;;;;;;;;;;;;;;;;5024605;28;19909;-64
2024/03/19 12:38:30;;;;;;;;;;;;;;;;;;5032496;28;19905;-64
2024/03/19 12:40:59;;;;;;;;;;;;;;;;;;5048816;28;19928;-63
2024/03/19 12:43:25;;;;;;;;;;;;;;;;;;5050343;28;19972;-64
2024/03/19 12:45:51;;;;;;;;;;;;;;;;;;5043559;28;19909;-64
2024/03/19 12:48:20;;;;;;;;;;;;;;;;;;5030383;28;19928;-64
2024/03/19 12:50:46;;;;;;;;;;;;;;;;;;5043715;28;19923;-63
2024/03/19 12:53:12;;;;;;;;;;;;;;;;;;5050292;28;19959;-63
2024/03/19 12:55:39;;;;;;;;;;;;;;;;;;5050140;28;19939;-63
2024/03/19 12:58:05;;;;;;;;;;;;;;;;;;5038853;28;19915;-64
2024/03/19 13:00:31;;;;;;;;;;;;;;;;;;5037455;28;19920;-64
2024/03/19 13:02:58;;;;;;;;;;;;;;;;;;5030149;28;20276;-64
2024/03/19 13:05:24;;;;;;;;;;;;;;;;;;5030340;28;19920;-64
2024/03/19 13:07:53;;;;;;;;;;;;;;;;;;5013615;28;20370;-64
2024/03/19 13:10:22;;;;;;;;;;;;;;;;;;5029993;28;20012;-63
2024/03/19 13:12:51;;;;;;;;;;;;;;;;;;5030666;28;19915;-64
2024/03/19 13:15:20;;;;;;;;;;;;;;;;;;5047904;28;19909;-64
2024/03/19 13:17:46;;;;;;;;;;;;;;;;;;5013636;28;20451;-64
2024/03/19 13:20:13;;;;;;;;;;;;;;;;;;5001129;28;20002;-64
2024/03/19 13:22:39;;;;;;;;;;;;;;;;;;5048936;28;19955;-63
2024/03/19 13:25:05;;;;;;;;;;;;;;;;;;5031859;28;19909;-64
2024/03/19 13:27:35;;;;;;;;;;;;;;;;;;5049618;28;19959;-64
2024/03/19 13:30:03;;;;;;;;;;;;;;;;;;5047735;28;19917;-64
2024/03/19 13:32:35;;;;;;;;;;;;;;;;;;5013293;28;19920;-64
2024/03/19 13:35:01;;;;;;;;;;;;;;;;;;5017306;28;19912;-63
2024/03/19 13:37:27;;;;;;;;;;;;;;;;;;5047849;28;19913;-64
2024/03/19 13:39:54;;;;;;;;;;;;;;;;;;5036124;28;19913;-57
2024/03/19 13:42:26;;;;;;;;;;;;;;;;;;5053409;28;19950;-56
2024/03/19 13:44:58;;;;;;;;;;;;;;;;;;5053168;28;19913;-64
2024/03/19 13:47:28;;;;;;;;;;;;;;;;;;5033806;28;19909;-63
2024/03/19 13:49:54;;;;;;;;;;;;;;;;;;5036921;28;19923;-63
2024/03/19 13:52:20;;;;;;;;;;;;;;;;;;5053346;28;19959;-63
2024/03/19 13:54:49;;;;;;;;;;;;;;;;;;5053136;28;19905;-64
2024/03/19 13:57:16;;;;;;;;;;;;;;;;;;5052815;28;19961;-64
2024/03/19 13:59:45;;;;;;;;;;;;;;;;;;5033030;28;19912;-64
2024/03/19 14:02:11;;;;;;;;;;;;;;;;;;5048117;28;19916;-63
2024/03/19 14:04:37;;;;;;;;;;;;;;;;;;5050600;28;19909;-64
2024/03/19 14:07:04;;;;;;;;;;;;;;;;;;5035624;28;19917;-64
2024/03/19 14:09:32;;;;;;;;;;;;;;;;;;5015405;28;20402;-64
2024/03/19 14:11:58;;;;;;;;;;;;;;;;;;5034480;28;19999;-64
2024/03/19 14:14:25;;;;;;;;;;;;;;;;;;5044392;28;19904;-65
2024/03/19 14:16:51;;;;;;;;;;;;;;;;;;5040390;28;19917;-64
2024/03/19 14:19:17;;;;;;;;;;;;;;;;;;5022416;28;19913;-64
2024/03/19 14:21:49;;;;;;;;;;;;;;;;;;5022556;28;19909;-64
2024/03/19 14:24:16;;;;;;;;;;;;;;;;;;5040389;28;19939;-65
2024/03/19 14:26:43;;;;;;;;;;;;;;;;;;5037509;28;19923;-64
2024/03/19 14:29:09;;;;;;;;;;;;;;;;;;5007381;28;19916;-64
2024/03/19 14:31:35;;;;;;;;;;;;;;;;;;5023692;28;19916;-64
2024/03/19 14:34:02;;;;;;;;;;;;;;;;;;5039990;28;19972;-64
2024/03/19 14:36:31;;;;;;;;;;;;;;;;;;5043795;28;19909;-64
2024/03/19 14:38:57;;;;;;;;;;;;;;;;;;5039674;28;20381;-64
2024/03/19 14:41:23;;;;;;;;;;;;;;;;;;5039890;28;19916;-64
2024/03/19 14:43:50;;;;;;;;;;;;;;;;;;5039893;28;19909;-64
2024/03/19 14:46:19;;;;;;;;;;;;;;;;;;5039585;28;19909;-64
2024/03/19 14:48:48;;;;;;;;;;;;;;;;;;5018483;28;19991;-64
2024/03/19 14:51:14;;;;;;;;;;;;;;;;;;5034814;28;20474;-63
2024/03/19 14:53:41;;;;;;;;;;;;;;;;;;5033684;28;19909;-64
2024/03/19 14:56:07;;;;;;;;;;;;;;;;;;5033553;28;19909;-64
2024/03/19 14:58:33;;;;;;;;;;;;;;;;;;5034110;28;20346;-64
2024/03/19 15:01:00;;;;;;;;;;;;;;;;;;5041140;28;20371;-64
2024/03/19 15:03:26;;;;;;;;;;;;;;;;;;5034343;28;19909;-64
2024/03/19 15:05:52;;;;;;;;;;;;;;;;;;5052919;28;19913;-64
2024/03/19 15:08:18;;;;;;;;;;;;;;;;;;5035440;28;19908;-64
2024/03/19 15:10:45;;;;;;;;;;;;;;;;;;5047674;28;19917;-63
2024/03/19 15:13:14;;;;;;;;;;;;;;;;;;5034594;28;19916;-63
2024/03/19 15:15:40;;;;;;;;;;;;;;;;;;5032566;28;19916;-63
2024/03/19 15:18:07;;;;;;;;;;;;;;;;;;5033015;28;19931;-63
2024/03/19 15:20:33;;;;;;;;;;;;;;;;;;5033189;28;19909;-63
2024/03/19 15:23:00;;;;;;;;;;;;;;;;;;5033260;28;20445;-64
2024/03/19 15:25:27;;;;;;;;;;;;;;;;;;5032839;28;20008;-63
2024/03/19 15:27:54;;;;;;;;;;;;;;;;;;5032941;28;19909;-63
2024/03/19 15:30:20;;;;;;;;;;;;;;;;;;5032846;28;19919;-63
2024/03/19 15:32:49;;;;;;;;;;;;;;;;;;5032829;28;20409;-63
2024/03/19 15:35:15;;;;;;;;;;;;;;;;;;5032641;28;19936;-63
2024/03/19 15:37:42;;;;;;;;;;;;;;;;;;5032821;28;19913;-63
2024/03/19 15:40:11;;;;;;;;;;;;;;;;;;5032702;28;20280;-63
2024/03/19 15:42:38;;;;;;;;;;;;;;;;;;5033112;28;19915;-63
2024/03/19 15:45:06;;;;;;;;;;;;;;;;;;5032584;28;19909;-63
2024/03/19 15:47:36;;;;;;;;;;;;;;;;;;5014858;28;19909;-63
2024/03/19 15:50:02;;;;;;;;;;;;;;;;;;5032355;28;19924;-63
2024/03/19 15:52:28;;;;;;;;;;;;;;;;;;5032590;28;19909;-63
2024/03/19 15:54:57;;;;;;;;;;;;;;;;;;5032532;28;20011;-63
2024/03/19 15:57:24;;;;;;;;;;;;;;;;;;5032345;28;19971;-63
2024/03/19 15:59:56;;;;;;;;;;;;;;;;;;5031986;28;20379;-63
2024/03/19 16:02:24;;;;;;;;;;;;;;;;;;5032304;28;19916;-63
2024/03/19 16:05:02;;;;;;;;;;;;;;;;;;5038911;28;19905;-63
2024/03/19 16:07:28;;;;;;;;;;;;;;;;;;5033121;28;20003;-63
2024/03/19 16:09:55;;;;;;;;;;;;;;;;;;5050643;28;19954;-63
2024/03/19 16:12:24;;;;;;;;;;;;;;;;;;5052058;28;20325;-63
2024/03/19 16:17:52;;;;;;;;;;;;;;;;;;4993242;28;19920;-63
2024/03/19 16:20:22;;;;;;;;;;;;;;;;;;5000403;28;19905;-63
2024/03/19 16:22:49;;;;;;;;;;;;;;;;;;5051652;28;19916;-63
2024/03/19 16:25:17;;;;;;;;;;;;;;;;;;5017157;28;19912;-63
2024/03/19 16:27:47;;;;;;;;;;;;;;;;;;5052139;28;19934;-63
2024/03/19 16:30:32;;;;;;;;;;;;;;;;;;5051775;28;19908;-63
2024/03/19 17:01:51;;;;;;;;;;;;;;;;;;4970566;28;19910;-63
2024/03/19 17:04:24;;;;;;;;;;;;;;;;;;4982453;28;19910;-63
2024/03/19 17:06:51;;;;;;;;;;;;;;;;;;4989563;28;20392;-63
2024/03/19 17:09:20;;;;;;;;;;;;;;;;;;5043373;28;19905;-58
2024/03/19 17:11:47;;;;;;;;;;;;;;;;;;5053016;28;19916;-63
2024/03/19 17:14:13;;;;;;;;;;;;;;;;;;5055520;28;19999;-63
2024/03/19 17:16:41;;;;;;;;;;;;;;;;;;5054902;28;19912;-60
2024/03/19 17:19:09;;;;;;;;;;;;;;;;;;5054247;28;19908;-57
2024/03/19 17:21:44;;;;;;;;;;;;;;;;;;5020007;28;20429;-63